sensor_id;sensor_type;location;lat;lon;timestamp;P1;durP1;ratioP1;P2;durP2;ratioP2
34581;SDS011;20814;49.364;8.804;2023-02-13T00:01:04;11.00;;;4.35;;
34581;SDS011;20814;49.364;8.804;2023-02-13T00:03:30;14.10;;;4.85;;
34581;SDS011;20814;49.364;8.804;2023-02-13T00:05:55;12.97;;;4.70;;
34581;SDS011;20814;49.364;8.804;2023-02-13T00:08:20;7.97;;;4.00;;
34581;SDS011;20814;49.364;8.804;2023-02-13T00:10:46;11.98;;;4.35;;
34581;SDS011;20814;49.364;8.804;2023-02-13T00:13:11;12.38;;;5.82;;
34581;SDS011;20814;49.364;8.804;2023-02-13T00:15:36;10.10;;;4.60;;
34581;SDS011;20814;49.364;8.804;2023-02-13T00:18:02;11.82;;;4.75;;
34581;SDS011;20814;49.364;8.804;2023-02-13T00:20:27;10.27;;;4.90;;
34581;SDS011;20814;49.364;8.804;2023-02-13T00:22:52;13.52;;;4.20;;
34581;SDS011;20814;49.364;8.804;2023-02-13T00:25:17;11.30;;;4.05;;
34581;SDS011;20814;49.364;8.804;2023-02-13T00:27:42;9.65;;;4.50;;
34581;SDS011;20814;49.364;8.804;2023-02-13T00:30:07;10.57;;;4.63;;
34581;SDS011;20814;49.364;8.804;2023-02-13T00:32:33;13.52;;;4.22;;
34581;SDS011;20814;49.364;8.804;2023-02-13T00:34:58;10.75;;;5.55;;
34581;SDS011;20814;49.364;8.804;2023-02-13T00:37:23;8.70;;;4.15;;
34581;SDS011;20814;49.364;8.804;2023-02-13T00:39:49;14.10;;;4.80;;
34581;SDS011;20814;49.364;8.804;2023-02-13T00:42:14;8.10;;;3.90;;
34581;SDS011;20814;49.364;8.804;2023-02-13T00:44:39;11.87;;;4.77;;
34581;SDS011;20814;49.364;8.804;2023-02-13T00:47:04;10.95;;;4.38;;
34581;SDS011;20814;49.364;8.804;2023-02-13T00:49:29;15.55;;;4.65;;
34581;SDS011;20814;49.364;8.804;2023-02-13T00:51:55;9.43;;;3.92;;
34581;SDS011;20814;49.364;8.804;2023-02-13T00:54:20;10.55;;;4.68;;
34581;SDS011;20814;49.364;8.804;2023-02-13T00:56:45;8.87;;;4.17;;
34581;SDS011;20814;49.364;8.804;2023-02-13T00:59:10;9.37;;;4.10;;
34581;SDS011;20814;49.364;8.804;2023-02-13T01:01:35;10.40;;;4.32;;
34581;SDS011;20814;49.364;8.804;2023-02-13T01:04:00;10.13;;;4.50;;
34581;SDS011;20814;49.364;8.804;2023-02-13T01:06:25;12.00;;;4.30;;
34581;SDS011;20814;49.364;8.804;2023-02-13T01:08:51;9.40;;;4.10;;
34581;SDS011;20814;49.364;8.804;2023-02-13T01:11:16;9.45;;;3.72;;
34581;SDS011;20814;49.364;8.804;2023-02-13T01:13:42;10.85;;;4.38;;
34581;SDS011;20814;49.364;8.804;2023-02-13T01:16:08;9.75;;;4.20;;
34581;SDS011;20814;49.364;8.804;2023-02-13T01:18:33;10.27;;;4.17;;
34581;SDS011;20814;49.364;8.804;2023-02-13T01:21:02;9.47;;;3.67;;
34581;SDS011;20814;49.364;8.804;2023-02-13T01:23:28;9.63;;;4.40;;
34581;SDS011;20814;49.364;8.804;2023-02-13T01:25:54;9.52;;;4.45;;
34581;SDS011;20814;49.364;8.804;2023-02-13T01:28:19;12.35;;;4.80;;
34581;SDS011;20814;49.364;8.804;2023-02-13T01:30:44;10.50;;;3.83;;
34581;SDS011;20814;49.364;8.804;2023-02-13T01:33:10;9.45;;;3.70;;
34581;SDS011;20814;49.364;8.804;2023-02-13T01:35:37;9.70;;;4.05;;
34581;SDS011;20814;49.364;8.804;2023-02-13T01:38:02;12.73;;;4.55;;
34581;SDS011;20814;49.364;8.804;2023-02-13T01:40:28;16.08;;;4.13;;
34581;SDS011;20814;49.364;8.804;2023-02-13T01:42:54;7.68;;;3.70;;
34581;SDS011;20814;49.364;8.804;2023-02-13T01:45:24;10.30;;;4.53;;
34581;SDS011;20814;49.364;8.804;2023-02-13T01:48:02;13.18;;;5.10;;
34581;SDS011;20814;49.364;8.804;2023-02-13T01:50:32;9.65;;;3.97;;
34581;SDS011;20814;49.364;8.804;2023-02-13T01:55:30;13.20;;;5.22;;
34581;SDS011;20814;49.364;8.804;2023-02-13T01:57:57;16.58;;;4.43;;
34581;SDS011;20814;49.364;8.804;2023-02-13T02:00:24;12.23;;;4.90;;
34581;SDS011;20814;49.364;8.804;2023-02-13T02:02:50;8.52;;;4.40;;
34581;SDS011;20814;49.364;8.804;2023-02-13T02:05:17;8.45;;;3.88;;
34581;SDS011;20814;49.364;8.804;2023-02-13T02:07:43;9.93;;;4.18;;
34581;SDS011;20814;49.364;8.804;2023-02-13T02:10:10;10.98;;;4.28;;
34581;SDS011;20814;49.364;8.804;2023-02-13T02:12:42;7.63;;;3.67;;
34581;SDS011;20814;49.364;8.804;2023-02-13T02:15:09;11.32;;;4.38;;
34581;SDS011;20814;49.364;8.804;2023-02-13T02:17:34;7.80;;;3.67;;
34581;SDS011;20814;49.364;8.804;2023-02-13T02:20:07;10.95;;;3.92;;
34581;SDS011;20814;49.364;8.804;2023-02-13T02:27:55;8.73;;;3.88;;
34581;SDS011;20814;49.364;8.804;2023-02-13T02:40:33;8.15;;;3.90;;
34581;SDS011;20814;49.364;8.804;2023-02-13T02:45:28;7.30;;;3.55;;
34581;SDS011;20814;49.364;8.804;2023-02-13T02:47:58;7.28;;;3.92;;
34581;SDS011;20814;49.364;8.804;2023-02-13T02:56:13;9.63;;;3.97;;
34581;SDS011;20814;49.364;8.804;2023-02-13T02:58:44;8.13;;;3.55;;
34581;SDS011;20814;49.364;8.804;2023-02-13T03:01:43;8.45;;;3.28;;
34581;SDS011;20814;49.364;8.804;2023-02-13T03:04:29;7.60;;;3.22;;
34581;SDS011;20814;49.364;8.804;2023-02-13T03:07:15;7.28;;;3.35;;
34581;SDS011;20814;49.364;8.804;2023-02-13T03:09:48;10.07;;;3.28;;
34581;SDS011;20814;49.364;8.804;2023-02-13T03:12:45;5.50;;;2.47;;
34581;SDS011;20814;49.364;8.804;2023-02-13T03:15:30;5.88;;;2.58;;
34581;SDS011;20814;49.364;8.804;2023-02-13T03:17:56;6.10;;;2.97;;
34581;SDS011;20814;49.364;8.804;2023-02-13T03:20:45;9.80;;;3.65;;
34581;SDS011;20814;49.364;8.804;2023-02-13T03:26:20;6.35;;;3.00;;
34581;SDS011;20814;49.364;8.804;2023-02-13T03:29:00;5.80;;;3.22;;
34581;SDS011;20814;49.364;8.804;2023-02-13T03:31:48;6.60;;;3.15;;
34581;SDS011;20814;49.364;8.804;2023-02-13T03:34:22;8.82;;;3.75;;
34581;SDS011;20814;49.364;8.804;2023-02-13T03:36:51;10.40;;;3.50;;
34581;SDS011;20814;49.364;8.804;2023-02-13T03:39:43;12.07;;;4.00;;
34581;SDS011;20814;49.364;8.804;2023-02-13T03:42:14;6.53;;;3.13;;
34581;SDS011;20814;49.364;8.804;2023-02-13T03:44:47;6.35;;;3.85;;
34581;SDS011;20814;49.364;8.804;2023-02-13T03:47:36;7.10;;;3.60;;
34581;SDS011;20814;49.364;8.804;2023-02-13T03:50:02;7.88;;;3.63;;
34581;SDS011;20814;49.364;8.804;2023-02-13T03:52:33;6.15;;;3.60;;
34581;SDS011;20814;49.364;8.804;2023-02-13T03:55:03;8.20;;;3.55;;
34581;SDS011;20814;49.364;8.804;2023-02-13T03:57:48;11.75;;;3.53;;
34581;SDS011;20814;49.364;8.804;2023-02-13T04:00:43;10.02;;;3.47;;
34581;SDS011;20814;49.364;8.804;2023-02-13T04:03:24;6.47;;;3.55;;
34581;SDS011;20814;49.364;8.804;2023-02-13T04:06:01;5.65;;;3.38;;
34581;SDS011;20814;49.364;8.804;2023-02-13T04:08:28;8.63;;;4.20;;
34581;SDS011;20814;49.364;8.804;2023-02-13T04:10:56;6.63;;;3.10;;
34581;SDS011;20814;49.364;8.804;2023-02-13T04:13:25;8.30;;;4.03;;
34581;SDS011;20814;49.364;8.804;2023-02-13T04:15:55;15.98;;;3.80;;
34581;SDS011;20814;49.364;8.804;2023-02-13T04:18:22;8.85;;;3.15;;
34581;SDS011;20814;49.364;8.804;2023-02-13T04:20:48;7.70;;;3.25;;
34581;SDS011;20814;49.364;8.804;2023-02-13T04:23:13;9.15;;;3.78;;
34581;SDS011;20814;49.364;8.804;2023-02-13T04:25:39;10.20;;;4.03;;
34581;SDS011;20814;49.364;8.804;2023-02-13T04:28:07;22.30;;;4.30;;
34581;SDS011;20814;49.364;8.804;2023-02-13T04:30:32;5.85;;;3.08;;
34581;SDS011;20814;49.364;8.804;2023-02-13T04:32:58;8.77;;;3.50;;
34581;SDS011;20814;49.364;8.804;2023-02-13T04:35:23;7.30;;;3.00;;
34581;SDS011;20814;49.364;8.804;2023-02-13T04:37:48;6.88;;;3.75;;
34581;SDS011;20814;49.364;8.804;2023-02-13T04:40:13;7.47;;;3.30;;
34581;SDS011;20814;49.364;8.804;2023-02-13T04:42:38;7.95;;;3.85;;
34581;SDS011;20814;49.364;8.804;2023-02-13T04:45:03;8.52;;;3.80;;
34581;SDS011;20814;49.364;8.804;2023-02-13T04:47:29;8.93;;;3.30;;
34581;SDS011;20814;49.364;8.804;2023-02-13T04:49:55;8.13;;;3.80;;
34581;SDS011;20814;49.364;8.804;2023-02-13T04:52:20;8.52;;;3.25;;
34581;SDS011;20814;49.364;8.804;2023-02-13T04:54:45;8.27;;;3.13;;
34581;SDS011;20814;49.364;8.804;2023-02-13T04:57:10;7.75;;;3.08;;
34581;SDS011;20814;49.364;8.804;2023-02-13T04:59:35;7.80;;;3.50;;
34581;SDS011;20814;49.364;8.804;2023-02-13T05:02:00;7.70;;;3.10;;
34581;SDS011;20814;49.364;8.804;2023-02-13T05:04:26;9.55;;;3.78;;
34581;SDS011;20814;49.364;8.804;2023-02-13T05:06:52;5.18;;;2.58;;
34581;SDS011;20814;49.364;8.804;2023-02-13T05:09:17;6.43;;;2.87;;
34581;SDS011;20814;49.364;8.804;2023-02-13T05:11:43;6.72;;;3.55;;
34581;SDS011;20814;49.364;8.804;2023-02-13T05:14:11;5.75;;;3.25;;
34581;SDS011;20814;49.364;8.804;2023-02-13T05:16:36;7.50;;;3.03;;
34581;SDS011;20814;49.364;8.804;2023-02-13T05:19:02;10.17;;;3.40;;
34581;SDS011;20814;49.364;8.804;2023-02-13T05:21:27;6.50;;;3.28;;
34581;SDS011;20814;49.364;8.804;2023-02-13T05:24:11;7.25;;;2.95;;
34581;SDS011;20814;49.364;8.804;2023-02-13T05:26:36;14.30;;;3.88;;
34581;SDS011;20814;49.364;8.804;2023-02-13T05:29:01;10.85;;;3.45;;
34581;SDS011;20814;49.364;8.804;2023-02-13T05:31:47;6.55;;;2.65;;
34581;SDS011;20814;49.364;8.804;2023-02-13T05:34:12;9.00;;;3.85;;
34581;SDS011;20814;49.364;8.804;2023-02-13T05:36:37;7.10;;;3.22;;
34581;SDS011;20814;49.364;8.804;2023-02-13T05:39:03;9.63;;;3.03;;
34581;SDS011;20814;49.364;8.804;2023-02-13T05:41:28;7.70;;;2.67;;
34581;SDS011;20814;49.364;8.804;2023-02-13T05:43:54;9.98;;;3.95;;
34581;SDS011;20814;49.364;8.804;2023-02-13T05:46:19;9.27;;;3.47;;
34581;SDS011;20814;49.364;8.804;2023-02-13T05:48:44;6.28;;;3.17;;
34581;SDS011;20814;49.364;8.804;2023-02-13T05:51:09;6.35;;;3.00;;
34581;SDS011;20814;49.364;8.804;2023-02-13T05:53:35;12.40;;;3.58;;
34581;SDS011;20814;49.364;8.804;2023-02-13T05:56:00;5.32;;;2.65;;
34581;SDS011;20814;49.364;8.804;2023-02-13T05:58:26;6.93;;;3.13;;
34581;SDS011;20814;49.364;8.804;2023-02-13T06:00:53;8.63;;;3.33;;
34581;SDS011;20814;49.364;8.804;2023-02-13T06:03:19;8.23;;;3.28;;
34581;SDS011;20814;49.364;8.804;2023-02-13T06:05:44;5.15;;;2.70;;
34581;SDS011;20814;49.364;8.804;2023-02-13T06:08:09;8.30;;;3.50;;
34581;SDS011;20814;49.364;8.804;2023-02-13T06:10:34;10.73;;;3.78;;
34581;SDS011;20814;49.364;8.804;2023-02-13T06:12:59;8.52;;;3.47;;
34581;SDS011;20814;49.364;8.804;2023-02-13T06:15:25;7.17;;;3.43;;
34581;SDS011;20814;49.364;8.804;2023-02-13T06:17:50;9.57;;;3.72;;
34581;SDS011;20814;49.364;8.804;2023-02-13T06:20:15;8.32;;;3.33;;
34581;SDS011;20814;49.364;8.804;2023-02-13T06:22:40;14.48;;;4.50;;
34581;SDS011;20814;49.364;8.804;2023-02-13T06:25:05;14.40;;;5.20;;
34581;SDS011;20814;49.364;8.804;2023-02-13T06:27:30;15.52;;;4.85;;
34581;SDS011;20814;49.364;8.804;2023-02-13T06:29:56;10.25;;;4.43;;
34581;SDS011;20814;49.364;8.804;2023-02-13T06:32:21;8.40;;;3.63;;
34581;SDS011;20814;49.364;8.804;2023-02-13T06:34:46;8.20;;;3.40;;
34581;SDS011;20814;49.364;8.804;2023-02-13T06:37:11;4.15;;;2.55;;
34581;SDS011;20814;49.364;8.804;2023-02-13T06:39:36;9.20;;;4.00;;
34581;SDS011;20814;49.364;8.804;2023-02-13T06:42:01;8.93;;;3.13;;
34581;SDS011;20814;49.364;8.804;2023-02-13T06:44:27;5.88;;;2.85;;
34581;SDS011;20814;49.364;8.804;2023-02-13T06:46:52;10.48;;;3.22;;
34581;SDS011;20814;49.364;8.804;2023-02-13T06:49:17;7.17;;;3.37;;
34581;SDS011;20814;49.364;8.804;2023-02-13T06:51:42;5.27;;;2.63;;
34581;SDS011;20814;49.364;8.804;2023-02-13T06:54:07;7.03;;;2.70;;
34581;SDS011;20814;49.364;8.804;2023-02-13T06:56:33;5.63;;;3.03;;
34581;SDS011;20814;49.364;8.804;2023-02-13T06:58:58;11.52;;;3.90;;
34581;SDS011;20814;49.364;8.804;2023-02-13T07:01:23;6.47;;;3.05;;
34581;SDS011;20814;49.364;8.804;2023-02-13T07:03:48;13.43;;;3.55;;
34581;SDS011;20814;49.364;8.804;2023-02-13T07:06:17;7.65;;;3.35;;
34581;SDS011;20814;49.364;8.804;2023-02-13T07:08:42;7.03;;;3.10;;
34581;SDS011;20814;49.364;8.804;2023-02-13T07:11:08;8.88;;;3.22;;
34581;SDS011;20814;49.364;8.804;2023-02-13T07:13:33;9.88;;;4.03;;
34581;SDS011;20814;49.364;8.804;2023-02-13T07:16:01;9.30;;;4.15;;
34581;SDS011;20814;49.364;8.804;2023-02-13T07:18:26;15.65;;;3.63;;
34581;SDS011;20814;49.364;8.804;2023-02-13T07:20:51;6.93;;;3.73;;
34581;SDS011;20814;49.364;8.804;2023-02-13T07:23:16;8.73;;;3.90;;
34581;SDS011;20814;49.364;8.804;2023-02-13T07:25:42;8.77;;;3.17;;
34581;SDS011;20814;49.364;8.804;2023-02-13T07:28:08;7.97;;;3.35;;
34581;SDS011;20814;49.364;8.804;2023-02-13T07:30:34;9.75;;;3.95;;
34581;SDS011;20814;49.364;8.804;2023-02-13T07:33:00;10.02;;;3.60;;
34581;SDS011;20814;49.364;8.804;2023-02-13T07:35:25;9.10;;;3.50;;
34581;SDS011;20814;49.364;8.804;2023-02-13T07:37:54;6.97;;;2.83;;
34581;SDS011;20814;49.364;8.804;2023-02-13T07:40:19;11.75;;;3.92;;
34581;SDS011;20814;49.364;8.804;2023-02-13T07:42:44;10.38;;;3.92;;
34581;SDS011;20814;49.364;8.804;2023-02-13T07:45:10;11.82;;;3.40;;
34581;SDS011;20814;49.364;8.804;2023-02-13T07:47:35;6.35;;;2.83;;
34581;SDS011;20814;49.364;8.804;2023-02-13T07:50:01;11.73;;;4.07;;
34581;SDS011;20814;49.364;8.804;2023-02-13T07:52:27;11.48;;;4.45;;
34581;SDS011;20814;49.364;8.804;2023-02-13T07:54:52;8.80;;;3.53;;
34581;SDS011;20814;49.364;8.804;2023-02-13T07:57:17;12.45;;;4.25;;
34581;SDS011;20814;49.364;8.804;2023-02-13T07:59:42;12.93;;;4.75;;
34581;SDS011;20814;49.364;8.804;2023-02-13T08:02:10;10.10;;;4.43;;
34581;SDS011;20814;49.364;8.804;2023-02-13T08:04:35;11.07;;;4.57;;
34581;SDS011;20814;49.364;8.804;2023-02-13T08:07:00;12.50;;;4.50;;
34581;SDS011;20814;49.364;8.804;2023-02-13T08:09:25;11.93;;;4.70;;
34581;SDS011;20814;49.364;8.804;2023-02-13T08:12:10;17.73;;;4.18;;
34581;SDS011;20814;49.364;8.804;2023-02-13T08:14:37;9.82;;;4.15;;
34581;SDS011;20814;49.364;8.804;2023-02-13T08:17:02;13.50;;;4.63;;
34581;SDS011;20814;49.364;8.804;2023-02-13T08:19:28;12.65;;;5.68;;
34581;SDS011;20814;49.364;8.804;2023-02-13T08:21:53;12.68;;;5.18;;
34581;SDS011;20814;49.364;8.804;2023-02-13T08:24:18;11.40;;;4.82;;
34581;SDS011;20814;49.364;8.804;2023-02-13T08:26:44;12.60;;;5.47;;
34581;SDS011;20814;49.364;8.804;2023-02-13T08:29:09;18.57;;;7.10;;
34581;SDS011;20814;49.364;8.804;2023-02-13T08:31:35;16.27;;;7.07;;
34581;SDS011;20814;49.364;8.804;2023-02-13T08:34:00;11.93;;;5.90;;
34581;SDS011;20814;49.364;8.804;2023-02-13T08:36:26;14.35;;;5.93;;
34581;SDS011;20814;49.364;8.804;2023-02-13T08:38:53;16.63;;;4.90;;
34581;SDS011;20814;49.364;8.804;2023-02-13T08:41:18;9.60;;;4.72;;
34581;SDS011;20814;49.364;8.804;2023-02-13T08:43:44;9.40;;;4.30;;
34581;SDS011;20814;49.364;8.804;2023-02-13T08:46:10;10.73;;;4.22;;
34581;SDS011;20814;49.364;8.804;2023-02-13T08:48:35;9.05;;;4.30;;
34581;SDS011;20814;49.364;8.804;2023-02-13T08:51:04;9.57;;;4.15;;
34581;SDS011;20814;49.364;8.804;2023-02-13T08:53:29;8.75;;;3.97;;
34581;SDS011;20814;49.364;8.804;2023-02-13T08:55:55;7.55;;;4.07;;
34581;SDS011;20814;49.364;8.804;2023-02-13T08:58:21;8.07;;;3.92;;
34581;SDS011;20814;49.364;8.804;2023-02-13T09:00:46;10.93;;;3.72;;
34581;SDS011;20814;49.364;8.804;2023-02-13T09:03:11;9.98;;;4.75;;
34581;SDS011;20814;49.364;8.804;2023-02-13T09:05:36;8.63;;;4.25;;
34581;SDS011;20814;49.364;8.804;2023-02-13T09:08:02;7.67;;;3.70;;
34581;SDS011;20814;49.364;8.804;2023-02-13T09:10:28;8.93;;;4.35;;
34581;SDS011;20814;49.364;8.804;2023-02-13T09:12:56;8.98;;;4.40;;
34581;SDS011;20814;49.364;8.804;2023-02-13T09:15:21;10.75;;;4.38;;
34581;SDS011;20814;49.364;8.804;2023-02-13T09:17:46;10.65;;;4.28;;
34581;SDS011;20814;49.364;8.804;2023-02-13T09:20:12;7.93;;;4.10;;
34581;SDS011;20814;49.364;8.804;2023-02-13T09:22:40;8.13;;;4.35;;
34581;SDS011;20814;49.364;8.804;2023-02-13T09:25:06;6.72;;;3.97;;
34581;SDS011;20814;49.364;8.804;2023-02-13T09:27:31;9.07;;;4.55;;
34581;SDS011;20814;49.364;8.804;2023-02-13T09:29:57;10.23;;;5.07;;
34581;SDS011;20814;49.364;8.804;2023-02-13T09:32:22;9.90;;;5.20;;
34581;SDS011;20814;49.364;8.804;2023-02-13T09:34:48;14.82;;;6.03;;
34581;SDS011;20814;49.364;8.804;2023-02-13T09:37:13;11.10;;;6.10;;
34581;SDS011;20814;49.364;8.804;2023-02-13T09:39:38;10.45;;;5.05;;
34581;SDS011;20814;49.364;8.804;2023-02-13T09:42:05;10.52;;;5.43;;
34581;SDS011;20814;49.364;8.804;2023-02-13T09:44:36;10.32;;;5.60;;
34581;SDS011;20814;49.364;8.804;2023-02-13T09:47:04;11.77;;;5.47;;
34581;SDS011;20814;49.364;8.804;2023-02-13T09:49:32;10.18;;;5.32;;
34581;SDS011;20814;49.364;8.804;2023-02-13T09:51:58;14.48;;;5.75;;
34581;SDS011;20814;49.364;8.804;2023-02-13T09:54:23;8.60;;;4.50;;
34581;SDS011;20814;49.364;8.804;2023-02-13T10:01:50;9.85;;;5.75;;
34581;SDS011;20814;49.364;8.804;2023-02-13T10:04:36;13.20;;;5.68;;
34581;SDS011;20814;49.364;8.804;2023-02-13T10:12:29;9.55;;;5.75;;
34581;SDS011;20814;49.364;8.804;2023-02-13T10:15:19;13.05;;;5.75;;
34581;SDS011;20814;49.364;8.804;2023-02-13T10:17:57;9.82;;;5.53;;
34581;SDS011;20814;49.364;8.804;2023-02-13T10:20:31;11.20;;;5.93;;
34581;SDS011;20814;49.364;8.804;2023-02-13T10:22:59;12.88;;;6.00;;
34581;SDS011;20814;49.364;8.804;2023-02-13T10:25:27;8.60;;;5.57;;
34581;SDS011;20814;49.364;8.804;2023-02-13T10:27:58;10.88;;;6.13;;
34581;SDS011;20814;49.364;8.804;2023-02-13T10:30:26;13.77;;;8.40;;
34581;SDS011;20814;49.364;8.804;2023-02-13T10:33:12;11.65;;;6.53;;
34581;SDS011;20814;49.364;8.804;2023-02-13T10:35:52;10.57;;;5.70;;
34581;SDS011;20814;49.364;8.804;2023-02-13T10:38:20;9.52;;;5.53;;
34581;SDS011;20814;49.364;8.804;2023-02-13T10:40:58;10.15;;;5.55;;
34581;SDS011;20814;49.364;8.804;2023-02-13T10:43:27;11.73;;;5.57;;
34581;SDS011;20814;49.364;8.804;2023-02-13T10:45:55;11.85;;;5.63;;
34581;SDS011;20814;49.364;8.804;2023-02-13T10:48:26;10.95;;;5.85;;
34581;SDS011;20814;49.364;8.804;2023-02-13T10:51:02;13.70;;;6.55;;
34581;SDS011;20814;49.364;8.804;2023-02-13T11:01:44;12.55;;;5.93;;
34581;SDS011;20814;49.364;8.804;2023-02-13T11:04:12;11.15;;;5.43;;
34581;SDS011;20814;49.364;8.804;2023-02-13T11:06:45;10.18;;;5.05;;
34581;SDS011;20814;49.364;8.804;2023-02-13T11:09:13;7.32;;;4.50;;
34581;SDS011;20814;49.364;8.804;2023-02-13T11:11:39;9.20;;;4.83;;
34581;SDS011;20814;49.364;8.804;2023-02-13T11:14:21;10.48;;;4.97;;
34581;SDS011;20814;49.364;8.804;2023-02-13T11:17:00;9.82;;;4.90;;
34581;SDS011;20814;49.364;8.804;2023-02-13T11:21:56;8.07;;;4.68;;
34581;SDS011;20814;49.364;8.804;2023-02-13T11:24:23;9.07;;;4.78;;
34581;SDS011;20814;49.364;8.804;2023-02-13T11:26:50;9.38;;;5.22;;
34581;SDS011;20814;49.364;8.804;2023-02-13T11:29:23;9.15;;;5.25;;
34581;SDS011;20814;49.364;8.804;2023-02-13T11:34:36;7.38;;;4.40;;
34581;SDS011;20814;49.364;8.804;2023-02-13T11:39:35;9.90;;;4.63;;
34581;SDS011;20814;49.364;8.804;2023-02-13T11:42:00;8.17;;;4.63;;
34581;SDS011;20814;49.364;8.804;2023-02-13T11:44:27;9.63;;;4.55;;
34581;SDS011;20814;49.364;8.804;2023-02-13T11:46:53;7.07;;;4.20;;
34581;SDS011;20814;49.364;8.804;2023-02-13T11:49:20;7.85;;;4.03;;
34581;SDS011;20814;49.364;8.804;2023-02-13T11:51:47;7.32;;;3.90;;
34581;SDS011;20814;49.364;8.804;2023-02-13T11:54:18;8.90;;;4.43;;
34581;SDS011;20814;49.364;8.804;2023-02-13T11:56:50;7.00;;;3.92;;
34581;SDS011;20814;49.364;8.804;2023-02-13T11:59:16;9.88;;;4.57;;
34581;SDS011;20814;49.364;8.804;2023-02-13T12:01:42;8.30;;;4.35;;
34581;SDS011;20814;49.364;8.804;2023-02-13T12:04:14;8.43;;;4.43;;
34581;SDS011;20814;49.364;8.804;2023-02-13T12:06:40;9.07;;;4.30;;
34581;SDS011;20814;49.364;8.804;2023-02-13T12:09:21;6.30;;;4.25;;
34581;SDS011;20814;49.364;8.804;2023-02-13T12:11:47;6.80;;;4.20;;
34581;SDS011;20814;49.364;8.804;2023-02-13T12:14:15;8.13;;;4.47;;
34581;SDS011;20814;49.364;8.804;2023-02-13T12:16:43;7.82;;;4.70;;
34581;SDS011;20814;49.364;8.804;2023-02-13T12:19:13;10.02;;;4.95;;
34581;SDS011;20814;49.364;8.804;2023-02-13T12:21:43;12.88;;;5.55;;
34581;SDS011;20814;49.364;8.804;2023-02-13T12:24:19;9.70;;;5.00;;
34581;SDS011;20814;49.364;8.804;2023-02-13T12:26:51;7.68;;;4.25;;
34581;SDS011;20814;49.364;8.804;2023-02-13T12:43:06;7.78;;;4.82;;
34581;SDS011;20814;49.364;8.804;2023-02-13T12:45:40;7.03;;;4.78;;
34581;SDS011;20814;49.364;8.804;2023-02-13T12:48:11;11.43;;;4.65;;
34581;SDS011;20814;49.364;8.804;2023-02-13T12:50:41;7.82;;;3.97;;
34581;SDS011;20814;49.364;8.804;2023-02-13T12:58:39;6.38;;;3.33;;
34581;SDS011;20814;49.364;8.804;2023-02-13T13:13:41;5.22;;;3.08;;
34581;SDS011;20814;49.364;8.804;2023-02-13T13:16:25;5.00;;;3.05;;
34581;SDS011;20814;49.364;8.804;2023-02-13T13:21:24;6.38;;;3.30;;
34581;SDS011;20814;49.364;8.804;2023-02-13T13:26:20;4.40;;;2.88;;
34581;SDS011;20814;49.364;8.804;2023-02-13T13:28:49;5.88;;;3.13;;
34581;SDS011;20814;49.364;8.804;2023-02-13T13:31:16;4.78;;;2.92;;
34581;SDS011;20814;49.364;8.804;2023-02-13T13:33:43;4.32;;;2.65;;
34581;SDS011;20814;49.364;8.804;2023-02-13T13:36:15;4.57;;;2.80;;
34581;SDS011;20814;49.364;8.804;2023-02-13T13:41:37;4.15;;;2.50;;
34581;SDS011;20814;49.364;8.804;2023-02-13T13:51:46;4.38;;;2.72;;
34581;SDS011;20814;49.364;8.804;2023-02-13T13:54:16;6.13;;;2.17;;
34581;SDS011;20814;49.364;8.804;2023-02-13T13:59:17;3.63;;;2.30;;
34581;SDS011;20814;49.364;8.804;2023-02-13T14:01:42;3.47;;;2.25;;
34581;SDS011;20814;49.364;8.804;2023-02-13T14:11:51;3.90;;;2.13;;
34581;SDS011;20814;49.364;8.804;2023-02-13T14:16:55;3.78;;;2.25;;
34581;SDS011;20814;49.364;8.804;2023-02-13T14:19:31;4.28;;;2.40;;
34581;SDS011;20814;49.364;8.804;2023-02-13T14:24:40;3.17;;;1.95;;
34581;SDS011;20814;49.364;8.804;2023-02-13T14:27:14;3.55;;;1.92;;
34581;SDS011;20814;49.364;8.804;2023-02-13T14:29:45;3.88;;;2.60;;
34581;SDS011;20814;49.364;8.804;2023-02-13T14:32:15;4.60;;;2.42;;
34581;SDS011;20814;49.364;8.804;2023-02-13T14:34:41;5.25;;;2.50;;
34581;SDS011;20814;49.364;8.804;2023-02-13T14:39:36;4.38;;;2.70;;
34581;SDS011;20814;49.364;8.804;2023-02-13T14:42:25;5.22;;;2.47;;
34581;SDS011;20814;49.364;8.804;2023-02-13T14:44:52;4.88;;;2.25;;
34581;SDS011;20814;49.364;8.804;2023-02-13T14:47:30;3.10;;;2.03;;
34581;SDS011;20814;49.364;8.804;2023-02-13T14:49:56;7.57;;;2.30;;
34581;SDS011;20814;49.364;8.804;2023-02-13T14:52:24;3.40;;;2.05;;
34581;SDS011;20814;49.364;8.804;2023-02-13T14:54:53;4.47;;;2.47;;
34581;SDS011;20814;49.364;8.804;2023-02-13T14:57:24;4.88;;;2.60;;
34581;SDS011;20814;49.364;8.804;2023-02-13T14:59:55;5.53;;;2.33;;
34581;SDS011;20814;49.364;8.804;2023-02-13T15:02:22;3.67;;;2.28;;
34581;SDS011;20814;49.364;8.804;2023-02-13T15:04:48;4.57;;;2.58;;
34581;SDS011;20814;49.364;8.804;2023-02-13T15:07:18;5.03;;;2.40;;
34581;SDS011;20814;49.364;8.804;2023-02-13T15:10:46;5.20;;;2.92;;
34581;SDS011;20814;49.364;8.804;2023-02-13T15:12:39;4.07;;;2.45;;
34581;SDS011;20814;49.364;8.804;2023-02-13T15:15:20;5.13;;;2.43;;
34581;SDS011;20814;49.364;8.804;2023-02-13T15:17:47;5.53;;;2.58;;
34581;SDS011;20814;49.364;8.804;2023-02-13T15:22:38;4.93;;;2.80;;
34581;SDS011;20814;49.364;8.804;2023-02-13T15:25:05;4.88;;;2.75;;
34581;SDS011;20814;49.364;8.804;2023-02-13T15:27:31;3.90;;;2.45;;
34581;SDS011;20814;49.364;8.804;2023-02-13T15:30:15;4.47;;;2.55;;
34581;SDS011;20814;49.364;8.804;2023-02-13T15:32:42;3.65;;;2.55;;
34581;SDS011;20814;49.364;8.804;2023-02-13T15:35:20;4.30;;;2.83;;
34581;SDS011;20814;49.364;8.804;2023-02-13T15:37:46;3.15;;;2.33;;
34581;SDS011;20814;49.364;8.804;2023-02-13T15:40:13;3.83;;;2.33;;
34581;SDS011;20814;49.364;8.804;2023-02-13T15:42:39;5.72;;;2.92;;
34581;SDS011;20814;49.364;8.804;2023-02-13T15:45:04;12.93;;;2.47;;
34581;SDS011;20814;49.364;8.804;2023-02-13T15:47:31;4.32;;;2.53;;
34581;SDS011;20814;49.364;8.804;2023-02-13T15:49:56;4.40;;;2.88;;
34581;SDS011;20814;49.364;8.804;2023-02-13T15:52:26;3.22;;;1.90;;
34581;SDS011;20814;49.364;8.804;2023-02-13T15:54:54;4.13;;;2.47;;
34581;SDS011;20814;49.364;8.804;2023-02-13T15:57:19;3.30;;;2.40;;
34581;SDS011;20814;49.364;8.804;2023-02-13T15:59:45;5.40;;;3.05;;
34581;SDS011;20814;49.364;8.804;2023-02-13T16:02:12;4.00;;;2.50;;
34581;SDS011;20814;49.364;8.804;2023-02-13T16:04:39;5.05;;;2.42;;
34581;SDS011;20814;49.364;8.804;2023-02-13T16:07:06;5.68;;;2.53;;
34581;SDS011;20814;49.364;8.804;2023-02-13T16:09:33;7.00;;;3.10;;
34581;SDS011;20814;49.364;8.804;2023-02-13T16:12:00;5.53;;;2.63;;
34581;SDS011;20814;49.364;8.804;2023-02-13T16:14:27;4.82;;;2.20;;
34581;SDS011;20814;49.364;8.804;2023-02-13T16:21:44;4.20;;;2.15;;
34581;SDS011;20814;49.364;8.804;2023-02-13T16:24:12;4.22;;;2.65;;
34581;SDS011;20814;49.364;8.804;2023-02-13T16:26:39;5.28;;;2.80;;
34581;SDS011;20814;49.364;8.804;2023-02-13T16:29:07;5.00;;;2.97;;
34581;SDS011;20814;49.364;8.804;2023-02-13T16:31:33;4.65;;;2.72;;
34581;SDS011;20814;49.364;8.804;2023-02-13T16:33:58;4.77;;;2.63;;
34581;SDS011;20814;49.364;8.804;2023-02-13T16:36:27;2.90;;;2.13;;
34581;SDS011;20814;49.364;8.804;2023-02-13T16:38:53;4.35;;;2.92;;
34581;SDS011;20814;49.364;8.804;2023-02-13T16:43:46;4.75;;;2.35;;
34581;SDS011;20814;49.364;8.804;2023-02-13T16:48:42;3.70;;;2.05;;
34581;SDS011;20814;49.364;8.804;2023-02-13T16:51:08;3.13;;;2.00;;
34581;SDS011;20814;49.364;8.804;2023-02-13T16:53:33;2.95;;;1.92;;
34581;SDS011;20814;49.364;8.804;2023-02-13T16:55:58;4.78;;;2.20;;
34581;SDS011;20814;49.364;8.804;2023-02-13T16:58:25;3.72;;;2.20;;
34581;SDS011;20814;49.364;8.804;2023-02-13T17:00:51;2.70;;;1.80;;
34581;SDS011;20814;49.364;8.804;2023-02-13T17:03:16;3.40;;;1.90;;